Time;durP1;ratioP1;P1;durP2;ratioP2;P2;SDS_P1;SDS_P2;PMS_P1;PMS_P2;Temp;Humidity;BMP_temperature;BMP_pressure;BME280_temperature;BME280_humidity;BME280_pressure;Samples;Min_cycle;Max_cycle;Signal;HPM_P1;HPM_P2
2023/03/29 00:01:29;;;;;;;7.38;3.70;;;;;;;;;;4986110;28;20047;-87
2023/03/29 00:03:56;;;;;;;7.07;3.70;;;;;;;;;;4998731;28;20054;-87
2023/03/29 00:06:22;;;;;;;8.88;3.83;;;;;;;;;;5001698;28;20065;-87
2023/03/29 00:08:56;;;;;;;8.18;3.60;;;;;;;;;;5001665;28;20049;-87
2023/03/29 00:11:22;;;;;;;10.23;3.75;;;;;;;;;;5002694;28;20065;-87
2023/03/29 00:13:49;;;;;;;7.68;3.83;;;;;;;;;;5007892;28;20077;-87
2023/03/29 00:16:16;;;;;;;8.55;3.60;;;;;;;;;;5005734;28;20046;-87
2023/03/29 00:18:42;;;;;;;8.02;4.00;;;;;;;;;;5003652;28;20484;-87
2023/03/29 00:21:08;;;;;;;8.20;3.65;;;;;;;;;;5000373;28;20046;-86
2023/03/29 00:23:34;;;;;;;7.97;3.80;;;;;;;;;;5000908;28;20046;-86
2023/03/29 00:26:00;;;;;;;6.22;3.70;;;;;;;;;;4984883;28;20043;-87
2023/03/29 00:28:27;;;;;;;8.27;3.88;;;;;;;;;;5001212;28;20096;-85
2023/03/29 00:30:53;;;;;;;7.07;3.60;;;;;;;;;;4999740;28;20105;-86
2023/03/29 00:33:19;;;;;;;7.72;3.45;;;;;;;;;;5000119;28;20110;-86
2023/03/29 00:35:49;;;;;;;7.47;3.83;;;;;;;;;;5001347;28;20038;-86
2023/03/29 00:38:15;;;;;;;5.68;2.97;;;;;;;;;;5000052;28;20057;-86
2023/03/29 00:40:43;;;;;;;8.30;3.88;;;;;;;;;;5000022;28;20062;-86
2023/03/29 00:43:11;;;;;;;8.18;3.33;;;;;;;;;;4997486;28;20042;-86
2023/03/29 00:45:39;;;;;;;9.68;3.67;;;;;;;;;;5001141;28;20054;-87
2023/03/29 00:48:07;;;;;;;7.30;3.80;;;;;;;;;;5001398;28;20050;-86
2023/03/29 00:50:48;;;;;;;7.60;3.72;;;;;;;;;;4999538;28;20104;-87
2023/03/29 00:53:25;;;;;;;9.50;3.75;;;;;;;;;;5000552;28;20050;-87
2023/03/29 00:55:53;;;;;;;8.65;3.70;;;;;;;;;;4997531;28;20046;-85
2023/03/29 00:58:25;;;;;;;8.30;3.78;;;;;;;;;;4998600;28;20045;-85
2023/03/29 01:00:57;;;;;;;6.20;3.80;;;;;;;;;;5000131;28;20050;-85
2023/03/29 01:03:27;;;;;;;8.40;4.10;;;;;;;;;;5000139;28;20057;-86
2023/03/29 01:05:59;;;;;;;9.45;4.28;;;;;;;;;;4999136;28;20397;-86
2023/03/29 01:08:24;;;;;;;;;;;;;;;;;;4998455;28;20042;-86
2023/03/29 01:10:54;;;;;;;8.48;4.13;;;;;;;;;;4999901;28;19928;-86
2023/03/29 01:13:25;;;;;;;8.20;4.05;;;;;;;;;;4982899;28;20042;-86
2023/03/29 01:15:52;;;;;;;;;;;;;;;;;;4997987;28;20049;-86
2023/03/29 01:18:20;;;;;;;6.68;3.30;;;;;;;;;;4989946;28;19926;-86
2023/03/29 01:20:47;;;;;;;9.07;3.90;;;;;;;;;;4998141;28;20057;-85
2023/03/29 01:23:14;;;;;;;8.93;3.95;;;;;;;;;;4999166;28;20054;-86
2023/03/29 01:25:58;;;;;;;7.88;4.15;;;;;;;;;;5000950;28;20046;-86
2023/03/29 01:28:29;;;;;;;7.43;4.30;;;;;;;;;;4997848;28;20050;-87
2023/03/29 01:31:08;;;;;;;9.15;4.38;;;;;;;;;;5000716;28;20515;-86
2023/03/29 01:33:45;;;;;;;11.02;4.78;;;;;;;;;;5000061;28;20046;-87
2023/03/29 01:36:25;;;;;;;6.60;3.88;;;;;;;;;;5002642;28;20096;-86
2023/03/29 01:39:03;;;;;;;8.73;4.75;;;;;;;;;;5003400;28;20050;-86
2023/03/29 01:41:48;;;;;;;7.35;3.97;;;;;;;;;;5005156;28;20049;-85
2023/03/29 01:44:20;;;;;;;8.05;4.53;;;;;;;;;;5002515;28;20053;-86
2023/03/29 01:46:50;;;;;;;11.15;4.60;;;;;;;;;;4993736;28;20062;-86
2023/03/29 01:49:25;;;;;;;11.50;4.82;;;;;;;;;;5001971;28;20046;-86
2023/03/29 01:51:55;;;;;;;8.25;4.82;;;;;;;;;;5001158;28;20051;-86
2023/03/29 01:54:27;;;;;;;8.57;4.95;;;;;;;;;;5003144;28;20034;-85
2023/03/29 01:56:53;;;;;;;10.25;4.85;;;;;;;;;;5000986;28;20085;-86
2023/03/29 01:59:22;;;;;;;8.05;4.60;;;;;;;;;;4999652;28;20436;-86
2023/03/29 02:01:50;;;;;;;10.18;5.22;;;;;;;;;;5000414;28;20096;-86
2023/03/29 02:04:19;;;;;;;9.52;5.10;;;;;;;;;;4999103;28;20419;-86
2023/03/29 02:06:46;;;;;;;10.75;6.00;;;;;;;;;;4998858;28;20112;-87
2023/03/29 02:09:13;;;;;;;9.98;5.68;;;;;;;;;;5002637;28;20129;-87
2023/03/29 02:11:41;;;;;;;11.52;6.07;;;;;;;;;;5000545;28;20050;-87
2023/03/29 02:14:08;;;;;;;12.15;6.50;;;;;;;;;;5000503;28;20129;-86
2023/03/29 02:16:38;;;;;;;12.13;6.80;;;;;;;;;;4983080;28;20038;-86
2023/03/29 02:19:05;;;;;;;12.43;7.57;;;;;;;;;;5009323;28;20054;-86
2023/03/29 02:22:02;;;;;;;12.32;7.57;;;;;;;;;;4998856;28;20042;-86
2023/03/29 02:24:31;;;;;;;12.85;7.65;;;;;;;;;;4999859;28;20061;-87
2023/03/29 02:26:57;;;;;;;14.00;8.20;;;;;;;;;;4998247;28;20047;-86
2023/03/29 02:29:23;;;;;;;11.45;7.60;;;;;;;;;;4998225;28;20054;-85
2023/03/29 02:31:53;;;;;;;15.95;9.07;;;;;;;;;;4995060;28;20381;-86
2023/03/29 02:34:25;;;;;;;12.77;9.30;;;;;;;;;;4999451;28;20042;-86
2023/03/29 02:36:58;;;;;;;18.25;10.00;;;;;;;;;;4982323;28;20086;-86
2023/03/29 02:39:25;;;;;;;14.65;10.25;;;;;;;;;;4982393;28;20042;-86
2023/03/29 02:41:53;;;;;;;14.57;9.88;;;;;;;;;;4998623;28;20053;-86
2023/03/29 02:44:21;;;;;;;17.05;10.45;;;;;;;;;;5000860;28;20050;-86
2023/03/29 02:46:49;;;;;;;14.57;10.23;;;;;;;;;;5000657;28;20129;-86
2023/03/29 02:49:15;;;;;;;17.38;10.52;;;;;;;;;;5000750;28;20056;-86
2023/03/29 02:51:41;;;;;;;18.10;10.85;;;;;;;;;;5000649;28;20043;-86
2023/03/29 02:54:17;;;;;;;18.95;11.80;;;;;;;;;;5000194;28;20054;-86
2023/03/29 02:56:50;;;;;;;15.38;10.70;;;;;;;;;;4998834;28;20081;-87
2023/03/29 02:59:18;;;;;;;18.13;11.25;;;;;;;;;;4998858;28;20104;-87
2023/03/29 03:01:44;;;;;;;17.35;11.80;;;;;;;;;;5000425;28;20177;-87
2023/03/29 03:04:11;;;;;;;16.67;11.32;;;;;;;;;;4999604;28;20046;-87
2023/03/29 03:06:39;;;;;;;19.25;11.25;;;;;;;;;;4997758;28;20105;-87
2023/03/29 03:09:06;;;;;;;16.55;11.85;;;;;;;;;;4999869;28;20058;-87
2023/03/29 03:11:33;;;;;;;19.17;12.48;;;;;;;;;;4998966;28;20405;-87
2023/03/29 03:13:59;;;;;;;20.13;12.73;;;;;;;;;;4999442;28;20038;-86
2023/03/29 03:16:26;;;;;;;20.17;12.45;;;;;;;;;;4996358;28;20054;-86
2023/03/29 03:18:54;;;;;;;19.23;12.70;;;;;;;;;;4985952;28;20512;-87
2023/03/29 03:21:20;;;;;;;17.85;12.25;;;;;;;;;;5001946;28;20042;-87
2023/03/29 03:23:47;;;;;;;16.77;12.23;;;;;;;;;;4997620;28;20055;-87
2023/03/29 03:26:14;;;;;;;15.57;11.98;;;;;;;;;;4997686;28;20053;-87
2023/03/29 03:28:40;;;;;;;16.70;12.75;;;;;;;;;;5001544;28;20516;-86
2023/03/29 03:31:06;;;;;;;17.50;12.52;;;;;;;;;;5001980;28;20046;-87
2023/03/29 03:33:33;;;;;;;19.23;12.23;;;;;;;;;;5001545;28;20042;-87
2023/03/29 03:36:05;;;;;;;16.95;11.85;;;;;;;;;;5002512;28;20038;-87
2023/03/29 03:38:32;;;;;;;19.00;13.15;;;;;;;;;;5002772;28;20404;-87
2023/03/29 03:40:59;;;;;;;19.13;12.63;;;;;;;;;;5000505;28;20054;-86
2023/03/29 03:43:26;;;;;;;17.33;12.48;;;;;;;;;;5002423;28;20046;-87
2023/03/29 03:45:52;;;;;;;16.90;13.07;;;;;;;;;;5002078;28;20098;-86
2023/03/29 03:48:18;;;;;;;18.90;12.57;;;;;;;;;;5002687;28;20417;-86
2023/03/29 03:50:52;;;;;;;17.55;12.63;;;;;;;;;;5000833;28;20101;-87
2023/03/29 03:53:18;;;;;;;18.67;13.15;;;;;;;;;;5002887;28;20085;-86
2023/03/29 03:55:51;;;;;;;17.23;12.18;;;;;;;;;;4998583;28;20481;-86
2023/03/29 03:58:17;;;;;;;18.08;12.57;;;;;;;;;;5002832;28;20042;-87
2023/03/29 04:00:45;;;;;;;21.02;12.95;;;;;;;;;;5001490;28;20114;-86
2023/03/29 04:03:11;;;;;;;16.90;12.55;;;;;;;;;;5000803;28;20508;-87
2023/03/29 04:05:40;;;;;;;17.00;12.20;;;;;;;;;;5001739;28;20073;-86
2023/03/29 04:08:07;;;;;;;16.33;12.32;;;;;;;;;;5003864;28;20172;-86
2023/03/29 04:10:34;;;;;;;19.17;12.52;;;;;;;;;;5007185;28;20177;-86
2023/03/29 04:13:04;;;;;;;19.88;12.98;;;;;;;;;;5007226;28;20098;-86
2023/03/29 04:15:30;;;;;;;19.92;12.90;;;;;;;;;;5002024;28;20456;-87
2023/03/29 04:17:57;;;;;;;17.63;12.07;;;;;;;;;;5002525;28;20422;-86
2023/03/29 04:20:23;;;;;;;16.85;12.00;;;;;;;;;;4995235;28;20049;-87
2023/03/29 04:22:50;;;;;;;16.95;12.90;;;;;;;;;;4986047;28;20126;-87
2023/03/29 04:25:16;;;;;;;18.08;12.43;;;;;;;;;;5006142;28;20050;-87
2023/03/29 04:27:43;;;;;;;17.20;12.63;;;;;;;;;;4988596;28;20050;-87
2023/03/29 04:30:09;;;;;;;19.00;13.05;;;;;;;;;;5006770;28;20042;-87
2023/03/29 04:32:36;;;;;;;18.00;13.13;;;;;;;;;;4981073;28;20046;-87
2023/03/29 04:35:03;;;;;;;17.98;13.00;;;;;;;;;;5002669;28;20038;-87
2023/03/29 04:37:30;;;;;;;20.35;12.20;;;;;;;;;;5001527;28;20061;-87
2023/03/29 04:39:59;;;;;;;19.80;13.07;;;;;;;;;;5003761;28;20046;-87
2023/03/29 04:42:25;;;;;;;18.73;12.93;;;;;;;;;;5004826;28;20050;-87
2023/03/29 04:44:52;;;;;;;22.73;13.18;;;;;;;;;;4976286;28;20076;-87
2023/03/29 04:47:18;;;;;;;16.77;12.27;;;;;;;;;;4997953;28;20058;-86
2023/03/29 04:49:45;;;;;;;16.42;12.07;;;;;;;;;;5002616;28;20056;-86
2023/03/29 04:52:11;;;;;;;20.27;12.13;;;;;;;;;;4984043;28;20082;-87
2023/03/29 04:54:37;;;;;;;17.73;11.88;;;;;;;;;;5001186;28;20054;-87
2023/03/29 04:57:04;;;;;;;16.38;11.68;;;;;;;;;;5002078;28;20492;-86
2023/03/29 04:59:31;;;;;;;17.38;12.77;;;;;;;;;;5002221;28;20054;-87
2023/03/29 05:01:57;;;;;;;17.88;11.82;;;;;;;;;;5003309;28;20077;-87
2023/03/29 05:04:23;;;;;;;19.70;12.82;;;;;;;;;;5000904;28;20488;-87
2023/03/29 05:06:49;;;;;;;17.45;11.95;;;;;;;;;;4994445;28;20154;-88
2023/03/29 05:09:16;;;;;;;14.63;10.98;;;;;;;;;;4988127;28;20121;-87
2023/03/29 05:11:42;;;;;;;19.42;11.95;;;;;;;;;;4982016;28;20058;-86
2023/03/29 05:14:08;;;;;;;24.80;12.60;;;;;;;;;;4996697;28;20046;-87
2023/03/29 05:16:36;;;;;;;17.73;12.30;;;;;;;;;;4994264;28;20405;-86
2023/03/29 05:19:03;;;;;;;20.25;11.70;;;;;;;;;;4996422;28;20043;-86
2023/03/29 05:21:29;;;;;;;19.20;12.00;;;;;;;;;;4995556;28;20042;-86
2023/03/29 05:23:55;;;;;;;18.85;12.70;;;;;;;;;;4987049;28;20093;-86
2023/03/29 05:26:22;;;;;;;15.50;11.80;;;;;;;;;;4974386;28;20042;-86
2023/03/29 05:28:51;;;;;;;16.50;12.30;;;;;;;;;;4966590;28;20058;-86
2023/03/29 05:31:17;;;;;;;16.25;11.52;;;;;;;;;;4989824;28;20043;-86
2023/03/29 05:33:43;;;;;;;17.90;11.95;;;;;;;;;;5001456;28;20530;-86
2023/03/29 05:36:12;;;;;;;22.38;13.07;;;;;;;;;;4995688;28;20118;-87
2023/03/29 05:38:38;;;;;;;21.17;13.02;;;;;;;;;;4986540;28;20074;-87
2023/03/29 05:41:05;;;;;;;17.63;12.48;;;;;;;;;;5001161;28;20057;-87
2023/03/29 05:43:31;;;;;;;18.52;12.70;;;;;;;;;;5000866;28;20050;-87
2023/03/29 05:45:58;;;;;;;18.60;13.55;;;;;;;;;;5002391;28;20062;-87
2023/03/29 05:48:24;;;;;;;20.45;12.98;;;;;;;;;;4998739;28;20071;-87
2023/03/29 05:50:52;;;;;;;21.92;14.15;;;;;;;;;;4983870;28;20045;-87
2023/03/29 05:53:18;;;;;;;22.35;14.77;;;;;;;;;;5000725;28;20050;-87
2023/03/29 05:55:45;;;;;;;20.42;14.13;;;;;;;;;;4984411;28;20070;-87
2023/03/29 05:58:12;;;;;;;21.38;14.23;;;;;;;;;;5002837;28;20042;-86
2023/03/29 06:00:40;;;;;;;19.67;15.32;;;;;;;;;;4984915;28;20117;-87
2023/03/29 06:03:07;;;;;;;19.88;13.60;;;;;;;;;;5007947;28;20038;-87
2023/03/29 06:05:34;;;;;;;20.73;14.88;;;;;;;;;;4994218;28;20120;-87
2023/03/29 06:08:01;;;;;;;23.02;14.88;;;;;;;;;;4996684;28;20065;-86
2023/03/29 06:10:27;;;;;;;19.13;14.05;;;;;;;;;;4991190;28;20038;-86
2023/03/29 06:12:56;;;;;;;23.80;14.40;;;;;;;;;;4993782;28;20138;-86
2023/03/29 06:15:25;;;;;;;;;;;;;;;;;;5002626;28;20051;-85
2023/03/29 06:17:51;;;;;;;19.58;13.95;;;;;;;;;;4999699;28;19922;-86
2023/03/29 06:20:17;;;;;;;21.80;15.57;;;;;;;;;;4984867;28;20058;-86
2023/03/29 06:22:45;;;;;;;22.73;15.25;;;;;;;;;;5001103;28;20054;-86
2023/03/29 06:25:12;;;;;;;21.30;15.88;;;;;;;;;;4983091;28;20485;-86
2023/03/29 06:27:39;;;;;;;20.38;15.68;;;;;;;;;;5001892;28;20435;-87
2023/03/29 06:30:05;;;;;;;24.83;16.15;;;;;;;;;;5004055;28;20102;-87
2023/03/29 06:32:33;;;;;;;20.20;15.95;;;;;;;;;;4988327;28;20046;-86
2023/03/29 06:34:59;;;;;;;21.05;15.23;;;;;;;;;;5003983;28;20050;-86
2023/03/29 06:37:26;;;;;;;19.30;14.93;;;;;;;;;;4984462;28;20047;-87
2023/03/29 06:39:55;;;;;;;26.77;17.02;;;;;;;;;;4999717;28;20055;-87
2023/03/29 06:42:22;;;;;;;24.58;15.43;;;;;;;;;;4991126;28;20047;-86
2023/03/29 06:44:48;;;;;;;24.17;15.40;;;;;;;;;;5010838;28;20054;-86
2023/03/29 06:47:16;;;;;;;22.58;15.90;;;;;;;;;;4989131;28;20090;-87
2023/03/29 06:49:45;;;;;;;21.73;16.60;;;;;;;;;;5000348;28;20046;-87
2023/03/29 06:52:11;;;;;;;23.00;15.63;;;;;;;;;;5000035;28;20065;-87
2023/03/29 06:54:38;;;;;;;20.90;15.02;;;;;;;;;;5004162;28;20054;-87
2023/03/29 06:57:04;;;;;;;25.10;15.55;;;;;;;;;;5004106;28;20366;-86
2023/03/29 06:59:30;;;;;;;23.02;15.95;;;;;;;;;;4982177;28;20122;-87
2023/03/29 07:01:56;;;;;;;22.85;15.55;;;;;;;;;;5006194;28;20084;-87
2023/03/29 07:04:23;;;;;;;22.13;15.90;;;;;;;;;;5003579;28;20051;-87
2023/03/29 07:07:00;;;;;;;21.42;15.13;;;;;;;;;;5003948;28;20108;-87
2023/03/29 07:09:28;;;;;;;19.38;15.30;;;;;;;;;;5004058;28;20061;-87
2023/03/29 07:11:55;;;;;;;22.25;14.07;;;;;;;;;;5002748;28;20413;-87
2023/03/29 07:14:22;;;;;;;20.83;13.82;;;;;;;;;;5003484;28;20550;-87
2023/03/29 07:16:48;;;;;;;25.25;15.02;;;;;;;;;;5002180;28;20404;-86
2023/03/29 07:19:14;;;;;;;20.73;13.63;;;;;;;;;;5014973;28;20496;-86
2023/03/29 07:21:41;;;;;;;22.75;15.30;;;;;;;;;;4987618;28;20102;-86
2023/03/29 07:24:07;;;;;;;18.95;14.35;;;;;;;;;;5002278;28;20050;-86
2023/03/29 07:26:33;;;;;;;23.55;14.38;;;;;;;;;;4995387;28;20055;-87
2023/03/29 07:29:00;;;;;;;21.50;14.23;;;;;;;;;;5002468;28;20427;-87
2023/03/29 07:31:28;;;;;;;20.90;13.98;;;;;;;;;;4984707;28;20057;-87
2023/03/29 07:33:54;;;;;;;20.98;14.02;;;;;;;;;;4996394;28;20046;-87
2023/03/29 07:36:21;;;;;;;20.85;13.52;;;;;;;;;;5002740;28;20038;-87
2023/03/29 07:38:47;;;;;;;20.25;13.52;;;;;;;;;;5008313;28;20042;-87
2023/03/29 07:41:13;;;;;;;20.80;14.00;;;;;;;;;;5004833;28;20042;-87
2023/03/29 07:43:40;;;;;;;16.65;12.93;;;;;;;;;;4998857;28;20046;-87
2023/03/29 07:46:08;;;;;;;17.73;13.32;;;;;;;;;;4998921;28;20093;-87
2023/03/29 07:48:35;;;;;;;20.10;12.90;;;;;;;;;;5000034;28;20054;-88
2023/03/29 07:51:05;;;;;;;19.52;13.43;;;;;;;;;;5001737;28;20042;-87
2023/03/29 07:53:31;;;;;;;16.70;12.35;;;;;;;;;;4985798;28;20070;-87
2023/03/29 07:55:59;;;;;;;18.95;12.65;;;;;;;;;;5002481;28;20110;-86
2023/03/29 07:58:26;;;;;;;14.88;11.40;;;;;;;;;;5003214;28;20069;-86
2023/03/29 08:00:52;;;;;;;18.10;12.73;;;;;;;;;;4991896;28;20055;-86
2023/03/29 08:03:18;;;;;;;19.63;11.57;;;;;;;;;;4983338;28;20061;-86
2023/03/29 08:05:44;;;;;;;16.98;12.25;;;;;;;;;;4997770;28;20052;-86
2023/03/29 08:08:12;;;;;;;17.55;12.15;;;;;;;;;;4985300;28;20409;-86
2023/03/29 08:10:39;;;;;;;21.25;11.52;;;;;;;;;;5002223;28;20046;-86
2023/03/29 08:13:08;;;;;;;15.98;11.00;;;;;;;;;;5001474;28;20082;-87
2023/03/29 08:15:37;;;;;;;15.35;11.15;;;;;;;;;;4983105;28;20034;-87
2023/03/29 08:18:03;;;;;;;16.88;10.27;;;;;;;;;;4979491;28;20043;-87
2023/03/29 08:20:29;;;;;;;16.35;11.35;;;;;;;;;;4984383;28;20047;-88
2023/03/29 08:22:55;;;;;;;16.33;11.02;;;;;;;;;;5001974;28;20043;-88
2023/03/29 08:25:24;;;;;;;17.05;10.70;;;;;;;;;;5002537;28;20042;-87
2023/03/29 08:27:50;;;;;;;14.27;10.95;;;;;;;;;;5002420;28;20050;-86
2023/03/29 08:30:16;;;;;;;15.30;11.07;;;;;;;;;;5004074;28;20540;-86
2023/03/29 08:32:43;;;;;;;15.18;11.02;;;;;;;;;;5001716;28;20054;-87
2023/03/29 08:35:09;;;;;;;16.38;10.18;;;;;;;;;;5006639;28;20046;-87
2023/03/29 08:37:36;;;;;;;14.77;10.43;;;;;;;;;;4988256;28;20046;-86
2023/03/29 08:40:03;;;;;;;16.25;10.07;;;;;;;;;;5000593;28;20034;-86
2023/03/29 08:42:36;;;;;;;15.27;10.45;;;;;;;;;;5000702;28;20066;-87
2023/03/29 08:45:08;;;;;;;16.15;9.85;;;;;;;;;;4999139;28;20188;-86
2023/03/29 08:47:42;;;;;;;15.85;10.88;;;;;;;;;;4994526;28;20046;-86
2023/03/29 08:50:08;;;;;;;14.73;10.60;;;;;;;;;;4984723;28;20054;-86
2023/03/29 08:52:36;;;;;;;16.33;9.98;;;;;;;;;;4998856;28;20412;-86
2023/03/29 08:55:05;;;;;;;14.02;9.77;;;;;;;;;;4984105;28;20448;-86
2023/03/29 08:57:32;;;;;;;15.68;10.88;;;;;;;;;;4997666;28;20481;-85
2023/03/29 09:00:00;;;;;;;16.95;10.05;;;;;;;;;;5000718;28;20451;-86
2023/03/29 09:02:27;;;;;;;16.50;10.63;;;;;;;;;;4999630;28;20046;-86
2023/03/29 09:04:58;;;;;;;14.32;9.07;;;;;;;;;;5000194;28;20038;-86
2023/03/29 09:07:25;;;;;;;13.98;9.10;;;;;;;;;;5000560;28;20063;-86
2023/03/29 09:09:52;;;;;;;16.20;8.88;;;;;;;;;;4986575;28;20113;-86
2023/03/29 09:12:24;;;;;;;14.60;8.80;;;;;;;;;;4998625;28;20050;-86
2023/03/29 09:15:10;;;;;;;13.43;8.70;;;;;;;;;;4998822;28;20081;-86
2023/03/29 09:17:55;;;;;;;14.32;8.93;;;;;;;;;;4997387;28;20068;-86
2023/03/29 09:20:26;;;;;;;12.27;9.00;;;;;;;;;;5008171;28;20046;-87
2023/03/29 09:23:11;;;;;;;13.40;7.53;;;;;;;;;;5000483;28;20580;-87
2023/03/29 09:25:43;;;;;;;11.90;8.57;;;;;;;;;;4986844;28;20055;-87
2023/03/29 09:28:13;;;;;;;14.15;8.50;;;;;;;;;;4984215;28;20062;-86
2023/03/29 09:30:40;;;;;;;15.30;9.23;;;;;;;;;;4984506;28;20046;-86
2023/03/29 09:33:26;;;;;;;12.88;8.55;;;;;;;;;;4982926;28;20426;-87
2023/03/29 09:36:03;;;;;;;13.88;8.32;;;;;;;;;;4986094;28;20153;-86
2023/03/29 09:38:30;;;;;;;12.98;8.50;;;;;;;;;;4986103;28;20081;-86
2023/03/29 09:41:00;;;;;;;14.57;8.15;;;;;;;;;;4987779;28;20440;-86
2023/03/29 09:43:34;;;;;;;14.88;7.85;;;;;;;;;;4986341;28;20073;-87
2023/03/29 09:46:02;;;;;;;12.50;7.85;;;;;;;;;;5002306;28;20042;-87
2023/03/29 09:48:29;;;;;;;15.38;8.38;;;;;;;;;;4985383;28;20461;-87
2023/03/29 09:50:56;;;;;;;13.02;8.02;;;;;;;;;;4975836;28;20051;-87
2023/03/29 09:53:22;;;;;;;12.65;8.18;;;;;;;;;;4993366;28;20065;-87
2023/03/29 09:55:49;;;;;;;18.08;8.52;;;;;;;;;;5000797;28;20055;-86
2023/03/29 09:58:21;;;;;;;12.15;7.63;;;;;;;;;;5001071;28;20038;-87
2023/03/29 10:00:48;;;;;;;14.15;8.50;;;;;;;;;;5001029;28;20053;-87
2023/03/29 10:03:24;;;;;;;16.48;8.93;;;;;;;;;;5001796;28;20058;-86
2023/03/29 10:05:54;;;;;;;12.88;8.05;;;;;;;;;;5001878;28;20053;-86
2023/03/29 10:08:29;;;;;;;15.38;8.15;;;;;;;;;;5002303;28;20046;-87
2023/03/29 10:10:59;;;;;;;12.00;7.88;;;;;;;;;;5002908;28;20053;-87
2023/03/29 10:13:32;;;;;;;16.27;8.80;;;;;;;;;;5001222;28;20042;-86
2023/03/29 10:16:03;;;;;;;16.02;8.63;;;;;;;;;;4999329;28;20042;-87
2023/03/29 10:18:30;;;;;;;14.43;8.73;;;;;;;;;;4988130;28;20076;-87
2023/03/29 10:21:01;;;;;;;14.77;8.80;;;;;;;;;;5001166;28;20042;-87
2023/03/29 10:23:33;;;;;;;12.25;7.82;;;;;;;;;;5003194;28;20129;-87
2023/03/29 10:26:03;;;;;;;13.73;9.25;;;;;;;;;;4986275;28;20053;-86
2023/03/29 10:28:30;;;;;;;15.68;8.80;;;;;;;;;;5004853;28;20038;-86
2023/03/29 10:30:58;;;;;;;14.40;8.88;;;;;;;;;;5006497;28;20038;-86
2023/03/29 10:33:26;;;;;;;16.80;9.30;;;;;;;;;;5003469;28;21556;-87
2023/03/29 10:35:55;;;;;;;15.00;8.82;;;;;;;;;;5004146;28;20046;-86
2023/03/29 10:38:23;;;;;;;17.23;9.38;;;;;;;;;;4985903;28;20050;-87
2023/03/29 10:40:50;;;;;;;15.82;10.02;;;;;;;;;;4992955;28;20066;-86
2023/03/29 10:43:16;;;;;;;14.95;9.95;;;;;;;;;;5006639;28;20052;-88
2023/03/29 10:45:43;;;;;;;15.68;10.02;;;;;;;;;;4994682;28;20066;-88
2023/03/29 10:48:12;;;;;;;15.13;10.02;;;;;;;;;;5004411;28;20042;-86
2023/03/29 10:50:38;;;;;;;16.42;10.27;;;;;;;;;;5004998;28;20054;-86
2023/03/29 10:53:25;;;;;;;17.15;9.90;;;;;;;;;;5005304;28;20046;-86
2023/03/29 10:55:59;;;;;;;15.18;10.32;;;;;;;;;;5008617;28;20038;-86
2023/03/29 10:58:54;;;;;;;14.98;10.35;;;;;;;;;;5005448;28;20138;-86
2023/03/29 11:01:26;;;;;;;15.15;10.43;;;;;;;;;;5024825;28;20061;-87
2023/03/29 11:04:07;;;;;;;17.25;11.52;;;;;;;;;;4991845;28;20161;-87
2023/03/29 11:06:37;;;;;;;14.80;10.90;;;;;;;;;;5005965;28;20046;-87
2023/03/29 11:09:13;;;;;;;17.83;11.80;;;;;;;;;;5011257;28;20046;-86
2023/03/29 11:11:54;;;;;;;13.93;10.32;;;;;;;;;;4999479;28;20060;-86
2023/03/29 11:14:20;;;;;;;15.68;10.70;;;;;;;;;;5008693;28;20088;-87
2023/03/29 11:16:49;;;;;;;14.52;10.77;;;;;;;;;;5001735;28;20733;-87
2023/03/29 11:19:34;;;;;;;16.25;10.30;;;;;;;;;;4993861;28;20058;-87
2023/03/29 11:22:00;;;;;;;13.43;9.93;;;;;;;;;;4981531;28;20046;-86
2023/03/29 11:24:26;;;;;;;13.77;9.45;;;;;;;;;;5006489;28;20049;-86
2023/03/29 11:26:52;;;;;;;16.23;9.75;;;;;;;;;;5009074;28;20061;-86
2023/03/29 11:29:25;;;;;;;15.68;9.98;;;;;;;;;;4998195;28;20038;-86
2023/03/29 11:32:09;;;;;;;12.07;8.55;;;;;;;;;;5020426;28;20062;-86
2023/03/29 11:34:44;;;;;;;13.60;9.98;;;;;;;;;;4990776;28;20115;-86
2023/03/29 11:37:16;;;;;;;14.02;8.63;;;;;;;;;;5002659;28;20050;-86
2023/03/29 11:39:51;;;;;;;11.95;8.77;;;;;;;;;;4986341;28;20038;-86
2023/03/29 11:42:23;;;;;;;13.88;8.73;;;;;;;;;;4986788;28;20061;-86
2023/03/29 11:44:51;;;;;;;14.27;8.90;;;;;;;;;;5019619;28;20042;-86
2023/03/29 11:47:21;;;;;;;13.80;8.23;;;;;;;;;;4990523;28;20093;-86
2023/03/29 11:49:56;;;;;;;12.65;8.80;;;;;;;;;;4998475;28;20092;-86
2023/03/29 11:52:25;;;;;;;11.88;8.20;;;;;;;;;;4985865;28;20130;-85
2023/03/29 11:55:03;;;;;;;;;;;;;;;;;;;;;
2023/03/29 11:57:42;;;;;;;13.25;9.25;;;;;;;;;;4997109;28;20142;-86
2023/03/29 12:00:13;;;;;;;13.07;7.85;;;;;;;;;;5007212;28;20500;-86
2023/03/29 12:02:44;;;;;;;15.70;8.57;;;;;;;;;;5007104;28;20054;-87
2023/03/29 12:05:33;;;;;;;14.18;7.97;;;;;;;;;;5008422;28;20050;-86
2023/03/29 12:08:03;;;;;;;11.88;7.80;;;;;;;;;;5005062;28;20109;-86
2023/03/29 12:10:42;;;;;;;10.55;7.25;;;;;;;;;;4988671;28;20097;-87
2023/03/29 12:13:14;;;;;;;11.88;8.00;;;;;;;;;;4969434;28;20089;-86
2023/03/29 12:15:45;;;;;;;10.48;7.50;;;;;;;;;;5002602;28;20046;-86
2023/03/29 12:18:14;;;;;;;12.48;7.43;;;;;;;;;;4995909;28;20047;-87
2023/03/29 12:20:41;;;;;;;12.18;7.35;;;;;;;;;;4993720;28;20088;-86
2023/03/29 12:23:07;;;;;;;11.15;7.43;;;;;;;;;;5002642;28;20527;-87
2023/03/29 12:25:51;;;;;;;11.55;7.53;;;;;;;;;;4970256;28;20130;-86
2023/03/29 12:28:17;;;;;;;12.40;7.63;;;;;;;;;;4978305;28;20505;-86
2023/03/29 12:31:01;;;;;;;14.75;7.85;;;;;;;;;;4995963;28;20039;-86
2023/03/29 12:33:42;;;;;;;13.70;8.00;;;;;;;;;;4961096;28;20034;-87
2023/03/29 12:36:37;;;;;;;13.07;7.85;;;;;;;;;;4994780;28;20068;-87
2023/03/29 12:39:04;;;;;;;12.43;7.82;;;;;;;;;;4925829;29;20055;-86
2023/03/29 12:41:35;;;;;;;15.40;7.65;;;;;;;;;;4945760;29;20051;-86
2023/03/29 12:44:02;;;;;;;12.68;7.72;;;;;;;;;;4942813;29;20112;-86
2023/03/29 12:46:32;;;;;;;12.02;7.30;;;;;;;;;;4922642;29;20051;-86
2023/03/29 12:49:08;;;;;;;9.50;6.28;;;;;;;;;;4944496;29;20052;-84
2023/03/29 12:51:35;;;;;;;12.55;7.07;;;;;;;;;;4938686;29;20032;-85
2023/03/29 12:54:06;;;;;;;9.40;6.30;;;;;;;;;;4927064;29;20048;-86
2023/03/29 12:56:36;;;;;;;11.30;7.23;;;;;;;;;;4941990;29;20052;-85
2023/03/29 12:59:25;;;;;;;10.90;7.13;;;;;;;;;;4940398;29;20884;-86
2023/03/29 13:01:59;;;;;;;11.80;7.50;;;;;;;;;;4928734;29;20066;-86
2023/03/29 13:04:43;;;;;;;11.55;7.18;;;;;;;;;;4942270;29;20168;-86
2023/03/29 13:07:28;;;;;;;11.68;7.00;;;;;;;;;;4924830;29;20063;-86
2023/03/29 13:09:57;;;;;;;10.95;6.57;;;;;;;;;;4943292;29;20059;-86
2023/03/29 13:12:29;;;;;;;9.73;6.55;;;;;;;;;;4909469;29;20047;-87
2023/03/29 13:15:00;;;;;;;11.95;6.90;;;;;;;;;;4935256;28;20062;-86
2023/03/29 13:17:29;;;;;;;11.18;7.47;;;;;;;;;;4977566;28;20441;-85
2023/03/29 13:20:18;;;;;;;12.95;7.75;;;;;;;;;;5001913;28;20056;-87
2023/03/29 13:23:03;;;;;;;12.23;7.28;;;;;;;;;;4995367;28;20046;-87
2023/03/29 13:25:29;;;;;;;11.48;7.25;;;;;;;;;;4996586;28;20041;-86
2023/03/29 13:28:11;;;;;;;12.80;7.47;;;;;;;;;;4993410;28;20176;-87
2023/03/29 13:30:46;;;;;;;12.75;7.43;;;;;;;;;;4994193;28;20042;-87
2023/03/29 13:33:31;;;;;;;12.20;7.70;;;;;;;;;;4995673;28;20050;-87
2023/03/29 13:36:09;;;;;;;13.57;7.57;;;;;;;;;;4988189;28;20129;-85
2023/03/29 13:38:48;;;;;;;12.38;7.40;;;;;;;;;;4994364;28;20058;-86
2023/03/29 13:41:32;;;;;;;13.07;7.80;;;;;;;;;;5001555;28;20047;-86
2023/03/29 13:43:58;;;;;;;13.25;8.20;;;;;;;;;;5003722;28;20126;-85
2023/03/29 13:46:41;;;;;;;12.52;7.95;;;;;;;;;;5003587;28;20050;-86
2023/03/29 13:49:27;;;;;;;12.18;8.65;;;;;;;;;;5004152;28;20054;-85
2023/03/29 13:51:53;;;;;;;10.48;8.15;;;;;;;;;;5005417;28;20038;-87
2023/03/29 13:54:25;;;;;;;12.45;8.40;;;;;;;;;;5000928;28;20048;-85
2023/03/29 13:57:17;;;;;;;12.70;8.05;;;;;;;;;;4998836;28;20042;-86
2023/03/29 13:59:47;;;;;;;11.95;7.85;;;;;;;;;;5002830;28;20050;-85
2023/03/29 14:02:16;;;;;;;12.27;7.63;;;;;;;;;;5003537;28;20108;-86
2023/03/29 14:04:47;;;;;;;12.30;9.48;;;;;;;;;;5003622;28;20070;-86
2023/03/29 14:07:14;;;;;;;14.60;10.73;;;;;;;;;;4985833;28;20051;-86
2023/03/29 14:09:43;;;;;;;14.88;9.45;;;;;;;;;;4999761;28;20050;-87
2023/03/29 14:12:12;;;;;;;12.02;8.85;;;;;;;;;;5000278;28;20050;-87
2023/03/29 14:14:40;;;;;;;12.60;8.68;;;;;;;;;;5001785;28;20046;-86
2023/03/29 14:17:07;;;;;;;11.50;8.85;;;;;;;;;;5001805;28;20047;-86
2023/03/29 14:19:37;;;;;;;12.75;9.25;;;;;;;;;;5000644;28;20043;-86
2023/03/29 14:22:08;;;;;;;15.98;10.82;;;;;;;;;;4999963;28;20054;-85
2023/03/29 14:24:38;;;;;;;13.55;10.80;;;;;;;;;;5002293;28;20046;-85
2023/03/29 14:27:06;;;;;;;14.45;10.35;;;;;;;;;;5005169;28;20477;-86
2023/03/29 14:29:35;;;;;;;12.13;9.13;;;;;;;;;;4994883;28;20098;-85
2023/03/29 14:32:09;;;;;;;12.73;8.90;;;;;;;;;;5001422;28;20042;-87
2023/03/29 14:34:35;;;;;;;17.90;9.32;;;;;;;;;;5001982;28;20046;-86
2023/03/29 14:37:01;;;;;;;15.98;11.82;;;;;;;;;;5003079;28;20046;-87
2023/03/29 14:39:27;;;;;;;12.15;9.82;;;;;;;;;;5000969;28;20043;-85
2023/03/29 14:41:56;;;;;;;12.23;9.35;;;;;;;;;;5003797;28;20108;-86